Time;durP1;ratioP1;P1;durP2;ratioP2;P2;SDS_P1;SDS_P2;PMS_P1;PMS_P2;Temp;Humidity;BMP_temperature;BMP_pressure;BME280_temperature;BME280_humidity;BME280_pressure;Samples;Min_cycle;Max_cycle;Signal;HPM_P1;HPM_P2
2021/11/23 00:01:44;;;;;;;8.00;6.20;;;;;;;4.10;69.57;101333.89;108327;1284;23097;-74
2021/11/23 00:04:28;;;;;;;10.40;6.60;;;;;;;4.08;69.56;101329.01;108364;1285;23653;-74
2021/11/23 00:06:57;;;;;;;10.80;6.40;;;;;;;4.06;69.63;101324.98;108497;1278;21990;-73
2021/11/23 00:09:26;;;;;;;10.70;6.80;;;;;;;4.04;69.61;101317.77;108377;1283;24314;-74
2021/11/23 00:11:55;;;;;;;9.70;6.90;;;;;;;4.02;69.57;101316.86;108414;1283;23138;-74
2021/11/23 00:14:25;;;;;;;10.10;7.40;;;;;;;4.00;69.59;101319.76;108352;1284;23614;-73
2021/11/23 00:16:55;;;;;;;11.00;8.10;;;;;;;3.98;69.59;101323.55;108447;1283;22121;-74
2021/11/23 00:19:24;;;;;;;15.30;8.30;;;;;;;3.96;69.50;101324.56;108361;1283;22005;-74
2021/11/23 00:21:54;;;;;;;13.90;8.30;;;;;;;3.93;69.39;101327.17;108428;1283;23968;-75
2021/11/23 00:24:23;;;;;;;12.50;7.70;;;;;;;3.92;69.38;101323.45;107612;1291;21999;-74
2021/11/23 00:26:53;;;;;;;13.80;7.60;;;;;;;3.88;69.37;101323.89;107944;1291;24333;-74
2021/11/23 00:29:22;;;;;;;12.10;7.80;;;;;;;3.85;69.44;101326.55;108019;1291;24334;-74
2021/11/23 00:31:51;;;;;;;11.20;7.20;;;;;;;3.83;69.53;101323.55;108019;1289;22009;-74
2021/11/23 00:34:27;;;;;;;10.20;7.00;;;;;;;3.79;69.54;101324.65;107758;1291;22002;-74
2021/11/23 00:36:59;;;;;;;10.40;7.20;;;;;;;3.74;69.53;101319.58;108007;1291;22118;-73
2021/11/23 00:39:29;;;;;;;11.40;7.30;;;;;;;3.68;69.56;101324.29;107618;1294;22791;-73
2021/11/23 00:41:58;;;;;;;11.90;7.90;;;;;;;3.63;69.61;101324.64;107584;1294;23052;-73
2021/11/23 00:44:27;;;;;;;12.50;7.80;;;;;;;3.59;69.74;101325.92;107516;1294;22008;-73
2021/11/23 00:46:58;;;;;;;12.20;7.30;;;;;;;3.56;69.80;101329.99;107562;1295;22060;-73
2021/11/23 00:49:29;;;;;;;12.40;7.60;;;;;;;3.50;69.89;101331.05;107610;1291;22196;-73
2021/11/23 00:52:02;;;;;;;10.60;7.00;;;;;;;3.45;70.03;101331.18;108006;1283;24622;-73
2021/11/23 00:54:32;;;;;;;9.00;7.20;;;;;;;3.40;70.05;101334.45;108370;1283;21995;-73
2021/11/23 00:57:02;;;;;;;9.30;6.10;;;;;;;3.36;70.20;101331.27;108362;1283;23598;-73
2021/11/23 00:59:34;;;;;;;10.60;6.60;;;;;;;3.32;70.30;101332.56;108378;1283;22061;-73
2021/11/23 01:02:03;;;;;;;10.70;6.90;;;;;;;3.27;70.40;101328.86;108377;1284;21985;-73
2021/11/23 01:04:34;;;;;;;10.30;6.80;;;;;;;3.22;70.50;101320.81;108313;1281;23688;-73
2021/11/23 01:07:04;;;;;;;9.10;6.50;;;;;;;3.16;70.41;101321.20;108559;1281;22411;-73
2021/11/23 01:09:33;;;;;;;9.90;6.60;;;;;;;3.09;70.58;101317.06;108376;1281;22001;-73
2021/11/23 01:12:03;;;;;;;9.70;5.90;;;;;;;3.05;70.69;101320.82;108498;1281;22532;-73
2021/11/23 01:14:35;;;;;;;10.20;6.20;;;;;;;3.00;70.79;101315.90;108522;1281;21980;-73
2021/11/23 01:17:05;;;;;;;8.90;6.00;;;;;;;2.95;70.95;101311.36;108621;1280;22902;-73
2021/11/23 01:19:36;;;;;;;9.20;5.20;;;;;;;2.92;71.13;101316.10;108527;1282;22001;-73
2021/11/23 01:22:06;;;;;;;10.80;6.80;;;;;;;2.88;71.16;101311.83;108750;1278;22449;-73
2021/11/23 01:24:36;;;;;;;10.00;6.50;;;;;;;2.84;71.17;101310.14;108885;1277;22287;-73
2021/11/23 01:27:05;;;;;;;9.50;6.30;;;;;;;2.80;71.29;101313.29;108778;1277;23042;-73
2021/11/23 01:29:36;;;;;;;9.80;6.60;;;;;;;2.78;71.30;101319.20;108912;1278;22899;-73
2021/11/23 01:32:07;;;;;;;9.00;5.50;;;;;;;2.73;71.29;101316.55;108725;1277;22051;-74
2021/11/23 01:34:39;;;;;;;10.00;6.00;;;;;;;2.71;71.51;101318.06;108786;1278;21992;-73
2021/11/23 01:37:11;;;;;;;9.10;6.20;;;;;;;2.67;71.50;101315.88;108974;1276;22234;-74
2021/11/23 01:39:40;;;;;;;7.50;5.60;;;;;;;2.62;71.49;101319.67;108387;1283;22107;-73
2021/11/23 01:42:10;;;;;;;11.90;6.50;;;;;;;2.57;71.62;101318.53;108313;1283;22014;-72
2021/11/23 01:44:40;;;;;;;7.60;5.90;;;;;;;2.52;71.66;101316.21;108459;1283;22121;-74
2021/11/23 01:47:13;;;;;;;8.30;5.90;;;;;;;2.48;71.75;101316.49;108306;1284;24298;-74
2021/11/23 01:49:43;;;;;;;8.00;6.70;;;;;;;2.44;71.91;101318.10;108484;1283;22026;-75
2021/11/23 01:52:12;;;;;;;10.00;6.20;;;;;;;2.42;71.95;101324.30;108442;1283;24295;-73
2021/11/23 01:54:42;;;;;;;10.90;7.20;;;;;;;2.40;72.15;101324.77;108437;1283;22000;-73
2021/11/23 01:57:11;;;;;;;9.40;6.70;;;;;;;2.38;72.15;101323.52;108531;1278;23045;-73
2021/11/23 01:59:41;;;;;;;10.50;6.70;;;;;;;2.34;72.18;101325.63;108531;1283;22411;-73
2021/11/23 02:02:10;;;;;;;9.50;6.50;;;;;;;2.32;72.16;101327.88;108067;1283;22035;-73
2021/11/23 02:04:40;;;;;;;9.60;7.00;;;;;;;2.30;72.17;101330.59;108303;1284;23140;-74
2021/11/23 02:07:13;;;;;;;8.90;6.10;;;;;;;2.28;72.37;101330.02;108339;1283;22043;-73
2021/11/23 02:09:42;;;;;;;10.00;6.90;;;;;;;2.27;72.42;101337.71;108395;1283;23711;-73
2021/11/23 02:12:12;;;;;;;10.40;7.40;;;;;;;2.25;72.35;101332.47;108335;1283;23651;-73
2021/11/23 02:14:41;;;;;;;11.70;8.00;;;;;;;2.21;72.30;101332.53;108332;1283;21982;-73
2021/11/23 02:17:11;;;;;;;10.20;7.60;;;;;;;2.16;72.41;101333.48;108416;1278;22435;-73
2021/11/23 02:19:49;;;;;;;10.20;7.80;;;;;;;2.15;72.42;101338.10;108776;1278;21986;-73
2021/11/23 02:22:19;;;;;;;10.20;7.10;;;;;;;2.12;72.49;101336.86;108374;1283;22044;-73
2021/11/23 02:24:49;;;;;;;10.80;8.30;;;;;;;2.08;72.41;101334.48;108003;1289;22002;-73
2021/11/23 02:27:18;;;;;;;15.90;8.10;;;;;;;2.03;72.20;101332.31;107769;1291;22021;-73
2021/11/23 02:29:47;;;;;;;18.20;8.40;;;;;;;1.99;72.24;101328.93;107904;1289;22003;-73
2021/11/23 02:32:17;;;;;;;13.30;7.80;;;;;;;1.96;72.31;101327.40;108040;1289;22000;-73
2021/11/23 02:34:46;;;;;;;16.30;8.40;;;;;;;1.93;72.45;101324.74;107969;1290;22017;-75
2021/11/23 02:37:16;;;;;;;11.50;7.60;;;;;;;1.91;72.50;101324.53;107907;1290;22018;-73
2021/11/23 02:39:45;;;;;;;11.00;8.20;;;;;;;1.89;72.57;101326.71;108055;1285;23055;-74
2021/11/23 02:42:14;;;;;;;12.80;8.60;;;;;;;1.85;72.47;101330.60;108008;1285;22002;-73
2021/11/23 02:44:44;;;;;;;12.00;7.60;;;;;;;1.80;72.58;101328.42;108326;1282;22127;-73
2021/11/23 02:47:13;;;;;;;11.80;7.40;;;;;;;1.79;72.70;101326.80;108479;1281;21996;-73
2021/11/23 02:49:43;;;;;;;12.50;8.80;;;;;;;1.76;72.67;101332.17;108450;1282;21994;-73
2021/11/23 02:52:12;;;;;;;12.80;8.70;;;;;;;1.73;72.65;101323.99;108638;1282;23586;-73
2021/11/23 02:54:59;;;;;;;12.50;9.20;;;;;;;1.71;72.70;101321.69;108310;1288;23208;-74
2021/11/23 02:57:32;;;;;;;14.30;8.70;;;;;;;1.67;72.74;101327.25;108054;1288;21991;-74
2021/11/23 03:00:09;;;;;;;12.40;8.60;;;;;;;1.65;72.80;101324.80;108135;1288;22665;-73
2021/11/23 03:02:38;;;;;;;11.70;8.70;;;;;;;1.62;72.75;101325.11;108341;1287;21990;-73
2021/11/23 03:05:08;;;;;;;13.10;7.70;;;;;;;1.60;72.76;101327.13;108304;1286;23701;-73
2021/11/23 03:07:38;;;;;;;11.40;8.20;;;;;;;1.59;72.92;101328.44;107984;1286;23698;-73
2021/11/23 03:10:10;;;;;;;10.30;7.50;;;;;;;1.58;72.87;101330.04;108420;1284;23583;-73
2021/11/23 03:12:40;;;;;;;15.90;8.30;;;;;;;1.57;72.86;101332.39;108354;1281;22015;-73
2021/11/23 03:15:10;;;;;;;12.40;7.80;;;;;;;1.57;73.01;101329.41;108425;1281;22054;-73
2021/11/23 03:17:39;;;;;;;12.70;8.50;;;;;;;1.56;72.78;101329.30;108550;1281;23710;-73
2021/11/23 03:20:13;;;;;;;13.20;9.10;;;;;;;1.54;72.82;101323.67;108512;1281;22007;-73
2021/11/23 03:22:42;;;;;;;10.70;8.00;;;;;;;1.54;72.75;101325.77;108669;1280;21983;-73
2021/11/23 03:25:14;;;;;;;16.80;8.70;;;;;;;1.52;72.73;101324.84;108483;1278;23743;-73
2021/11/23 03:27:44;;;;;;;11.50;8.00;;;;;;;1.51;72.74;101323.64;108326;1281;21986;-73
2021/11/23 03:30:20;;;;;;;11.00;8.10;;;;;;;1.50;72.66;101321.30;108554;1282;22744;-73
2021/11/23 03:32:53;;;;;;;14.50;8.50;;;;;;;1.49;72.61;101319.45;108096;1289;21988;-73
2021/11/23 03:35:29;;;;;;;13.40;8.00;;;;;;;1.48;72.69;101321.77;108048;1288;22002;-73
2021/11/23 03:38:00;;;;;;;11.60;8.40;;;;;;;1.46;72.66;101326.21;107551;1295;23227;-73
2021/11/23 03:40:34;;;;;;;11.40;8.00;;;;;;;1.44;72.57;101317.99;107074;1301;22089;-73
2021/11/23 03:43:06;;;;;;;13.10;9.10;;;;;;;1.41;72.56;101313.80;106895;1303;22620;-73
2021/11/23 03:45:36;;;;;;;9.80;7.10;;;;;;;1.39;72.48;101311.63;106717;1304;22835;-73
2021/11/23 03:48:05;;;;;;;11.40;7.50;;;;;;;1.37;72.46;101309.31;106858;1300;22005;-73
2021/11/23 03:50:35;;;;;;;9.40;7.00;;;;;;;1.34;72.42;101303.06;106686;1298;22037;-73
2021/11/23 03:53:07;;;;;;;9.40;6.90;;;;;;;1.29;72.34;101301.95;107632;1293;22002;-74
2021/11/23 03:55:38;;;;;;;11.50;7.40;;;;;;;1.23;72.22;101301.59;107290;1295;22032;-73
2021/11/23 03:58:07;;;;;;;10.30;7.60;;;;;;;1.21;72.33;101300.71;106965;1301;22051;-73
2021/11/23 04:00:36;;;;;;;11.40;7.30;;;;;;;1.20;72.32;101298.84;107223;1295;25007;-74
2021/11/23 04:03:06;;;;;;;8.10;6.30;;;;;;;1.19;72.26;101284.98;107497;1294;22014;-73
2021/11/23 04:05:35;;;;;;;9.00;6.00;;;;;;;1.17;72.08;101282.67;107451;1292;23866;-73
2021/11/23 04:08:04;;;;;;;12.70;7.10;;;;;;;1.15;72.11;101277.08;107872;1292;24319;-73
2021/11/23 04:10:34;;;;;;;10.40;6.40;;;;;;;1.14;72.05;101271.72;107713;1292;22026;-73
2021/11/23 04:13:03;;;;;;;10.70;6.90;;;;;;;1.14;72.08;101265.83;107880;1292;23760;-73
2021/11/23 04:15:35;;;;;;;9.50;6.20;;;;;;;1.13;71.93;101262.60;107850;1286;24203;-73
2021/11/23 04:18:04;;;;;;;8.60;6.90;;;;;;;1.08;71.69;101265.11;108356;1285;22349;-73
2021/11/23 04:20:34;;;;;;;8.80;6.50;;;;;;;1.05;71.76;101261.48;108209;1280;23592;-73
2021/11/23 04:23:04;;;;;;;8.10;6.10;;;;;;;1.02;71.77;101260.77;108445;1278;23069;-73
2021/11/23 04:25:33;;;;;;;9.70;6.00;;;;;;;1.00;71.71;101262.61;108771;1276;22002;-73
2021/11/23 04:28:03;;;;;;;9.60;6.50;;;;;;;0.99;71.84;101264.45;108826;1278;22015;-73
2021/11/23 04:30:32;;;;;;;7.40;5.90;;;;;;;0.98;71.91;101260.68;108786;1278;23825;-73
2021/11/23 04:33:02;;;;;;;10.80;6.60;;;;;;;0.98;71.86;101257.69;108765;1277;21987;-73
2021/11/23 04:35:31;;;;;;;10.70;5.90;;;;;;;0.96;71.73;101257.49;108745;1277;22816;-73
2021/11/23 04:38:01;;;;;;;9.80;5.70;;;;;;;0.95;71.85;101259.08;108928;1277;22012;-73
2021/11/23 04:40:30;;;;;;;7.90;5.90;;;;;;;0.94;71.72;101255.86;108311;1283;21993;-73
2021/11/23 04:43:01;;;;;;;8.50;6.20;;;;;;;0.95;71.82;101252.33;108343;1283;23812;-73
2021/11/23 04:45:32;;;;;;;12.90;6.50;;;;;;;1.00;71.98;101246.52;108368;1283;22085;-74
2021/11/23 04:48:02;;;;;;;11.00;7.40;;;;;;;1.03;71.76;101247.56;108381;1285;22043;-73
2021/11/23 04:50:33;;;;;;;11.10;7.60;;;;;;;1.04;71.73;101250.09;108435;1283;23052;-73
2021/11/23 04:53:03;;;;;;;10.60;7.10;;;;;;;1.06;71.61;101250.33;107544;1291;23729;-73
2021/11/23 04:55:32;;;;;;;12.40;7.60;;;;;;;1.07;71.49;101253.40;108014;1291;22467;-74
2021/11/23 04:58:02;;;;;;;8.50;6.40;;;;;;;1.11;71.66;101248.67;108061;1285;22097;-73
2021/11/23 05:00:32;;;;;;;8.60;6.40;;;;;;;1.15;71.53;101246.50;108409;1284;21994;-73
2021/11/23 05:03:01;;;;;;;11.00;7.00;;;;;;;1.18;71.43;101246.17;108360;1285;22002;-73
2021/11/23 05:05:31;;;;;;;8.90;7.40;;;;;;;1.21;71.39;101237.16;108408;1284;22043;-73
2021/11/23 05:08:00;;;;;;;8.40;6.90;;;;;;;1.21;71.13;101227.45;108308;1285;23038;-73
2021/11/23 05:10:30;;;;;;;9.00;6.80;;;;;;;1.18;70.98;101225.89;108373;1284;22008;-72
2021/11/23 05:12:59;;;;;;;8.90;6.70;;;;;;;1.18;71.07;101225.89;108369;1285;22013;-73
2021/11/23 05:15:29;;;;;;;10.60;7.40;;;;;;;1.19;71.02;101222.70;108310;1285;21992;-73
2021/11/23 05:17:58;;;;;;;9.40;7.40;;;;;;;1.20;70.92;101219.35;108552;1278;22035;-72
2021/11/23 05:20:27;;;;;;;16.30;13.30;;;;;;;1.22;70.90;101222.21;108783;1278;23708;-73
2021/11/23 05:22:56;;;;;;;12.00;8.60;;;;;;;1.22;70.92;101224.27;108798;1278;23601;-73
2021/11/23 05:25:26;;;;;;;15.60;10.20;;;;;;;1.21;70.93;101225.88;108831;1272;23892;-72
2021/11/23 05:27:55;;;;;;;11.90;8.60;;;;;;;1.22;70.98;101225.82;108809;1277;22971;-73
2021/11/23 05:30:24;;;;;;;9.90;7.50;;;;;;;1.23;71.07;101218.88;108842;1276;22019;-73
2021/11/23 05:32:54;;;;;;;12.60;8.30;;;;;;;1.27;71.20;101212.16;108688;1276;23550;-73
2021/11/23 05:35:26;;;;;;;9.90;7.50;;;;;;;1.29;70.89;101219.52;109000;1277;24423;-73
2021/11/23 05:37:56;;;;;;;12.00;7.50;;;;;;;1.30;70.82;101215.00;108962;1278;21986;-74
2021/11/23 05:40:28;;;;;;;10.00;6.40;;;;;;;1.29;70.75;101216.60;108841;1278;21980;-74
2021/11/23 05:42:58;;;;;;;13.20;8.00;;;;;;;1.30;70.74;101218.98;108791;1276;23736;-74
2021/11/23 05:45:27;;;;;;;17.00;10.60;;;;;;;1.31;70.73;101215.06;108777;1278;23682;-74
2021/11/23 05:47:57;;;;;;;11.80;7.10;;;;;;;1.33;70.67;101216.51;108383;1281;21983;-73
2021/11/23 05:50:26;;;;;;;8.30;5.90;;;;;;;1.37;70.67;101213.16;108385;1283;22028;-73
2021/11/23 05:52:58;;;;;;;12.40;8.20;;;;;;;1.37;70.49;101205.53;108431;1282;22743;-73
2021/11/23 05:55:33;;;;;;;11.60;7.50;;;;;;;1.40;70.53;101206.21;108155;1288;23620;-73
2021/11/23 05:58:04;;;;;;;12.80;7.90;;;;;;;1.44;70.51;101204.99;107845;1289;22001;-73
2021/11/23 06:00:34;;;;;;;14.20;7.80;;;;;;;1.45;70.33;101203.72;108203;1288;21995;-73
2021/11/23 06:03:05;;;;;;;14.80;8.60;;;;;;;1.46;70.31;101200.89;107729;1292;22002;-74
2021/11/23 06:05:36;;;;;;;12.60;8.40;;;;;;;1.46;70.30;101195.83;107597;1288;22515;-73
2021/11/23 06:08:08;;;;;;;13.20;7.20;;;;;;;1.46;70.32;101202.12;108288;1285;23720;-73
2021/11/23 06:10:38;;;;;;;13.60;8.20;;;;;;;1.40;69.99;101205.52;107918;1292;22760;-74
2021/11/23 06:13:10;;;;;;;16.10;9.80;;;;;;;1.36;70.23;101204.38;107912;1291;23747;-74
2021/11/23 06:15:44;;;;;;;21.90;11.80;;;;;;;1.37;70.22;101204.67;107732;1291;22338;-74
2021/11/23 06:18:14;;;;;;;17.40;10.70;;;;;;;1.39;70.18;101206.31;107673;1291;23672;-74
2021/11/23 06:20:54;;;;;;;19.50;11.40;;;;;;;1.39;69.96;101211.00;107825;1285;22303;-74
2021/11/23 06:23:24;;;;;;;19.20;10.00;;;;;;;1.39;70.08;101206.78;108413;1280;23036;-73
2021/11/23 06:25:57;;;;;;;15.60;9.70;;;;;;;1.42;70.10;101205.11;108423;1283;23705;-74
2021/11/23 06:28:27;;;;;;;15.60;10.60;;;;;;;1.42;69.93;101205.97;108082;1288;21988;-74
2021/11/23 06:30:57;;;;;;;17.80;11.00;;;;;;;1.42;69.91;101208.73;108199;1288;21999;-74
2021/11/23 06:33:27;;;;;;;17.30;9.20;;;;;;;1.45;70.06;101212.95;107797;1292;22063;-74
2021/11/23 06:35:57;;;;;;;18.30;11.20;;;;;;;1.46;70.13;101209.89;107936;1286;22028;-74
2021/11/23 06:38:27;;;;;;;15.50;10.60;;;;;;;1.46;70.01;101205.58;108040;1287;23412;-73
2021/11/23 06:40:57;;;;;;;11.70;9.10;;;;;;;1.47;70.05;101202.89;107995;1288;156842;-74
2021/11/23 06:43:26;;;;;;;12.90;9.00;;;;;;;1.49;70.10;101209.17;108171;1286;22011;-77
2021/11/23 06:45:56;;;;;;;16.10;8.60;;;;;;;1.51;70.11;101204.20;108097;1285;22005;-75
2021/11/23 06:48:25;;;;;;;13.10;7.80;;;;;;;1.54;70.16;101205.79;108443;1283;22205;-75
2021/11/23 06:50:55;;;;;;;14.60;8.80;;;;;;;1.54;70.12;101202.64;108448;1277;22045;-77
2021/11/23 06:53:25;;;;;;;13.60;9.00;;;;;;;1.55;70.11;101202.44;108386;1282;24380;-76
2021/11/23 06:55:54;;;;;;;14.30;9.00;;;;;;;1.55;70.21;101200.20;108173;1288;22004;-76
2021/11/23 06:58:23;;;;;;;18.60;8.40;;;;;;;1.54;70.11;101201.80;108270;1288;21996;-76
2021/11/23 07:00:57;;;;;;;14.40;8.90;;;;;;;1.52;70.10;101201.36;108225;1287;23660;-76
2021/11/23 07:03:30;;;;;;;17.30;10.20;;;;;;;1.52;70.10;101203.98;108264;1287;22099;-76
2021/11/23 07:05:59;;;;;;;15.10;10.30;;;;;;;1.55;70.24;101203.48;108134;1288;23672;-76
2021/11/23 07:08:30;;;;;;;15.80;9.20;;;;;;;1.58;70.14;101205.58;108154;1288;22314;-76
2021/11/23 07:11:05;;;;;;;17.50;10.10;;;;;;;1.58;70.03;101211.27;107872;1292;23595;-75
2021/11/23 07:13:35;;;;;;;16.50;9.80;;;;;;;1.59;70.13;101209.81;107667;1288;22059;-76
2021/11/23 07:16:05;;;;;;;18.00;9.90;;;;;;;1.63;70.20;101215.51;107959;1288;23063;-76
2021/11/23 07:18:35;;;;;;;16.80;10.20;;;;;;;1.67;70.22;101216.66;108283;1280;23699;-76
2021/11/23 07:21:04;;;;;;;24.40;13.40;;;;;;;1.71;70.24;101217.98;108265;1286;22037;-76
2021/11/23 07:23:54;;;;;;;20.50;12.70;;;;;;;1.74;70.19;101213.66;108230;1286;22005;-76
2021/11/23 07:26:24;;;;;;;24.50;13.70;;;;;;;1.77;70.21;101212.80;107945;1291;22068;-76
2021/11/23 07:28:54;;;;;;;18.00;11.90;;;;;;;1.84;70.39;101214.80;107743;1290;23047;-76
2021/11/23 07:31:23;;;;;;;16.10;10.20;;;;;;;1.93;70.62;101214.11;107978;1289;21996;-76
2021/11/23 07:33:53;;;;;;;13.60;9.30;;;;;;;2.04;70.93;101222.63;107616;1292;22004;-75
2021/11/23 07:36:29;;;;;;;14.70;9.80;;;;;;;2.15;70.93;101221.45;107843;1290;21990;-75
2021/11/23 07:39:08;;;;;;;21.00;11.80;;;;;;;2.30;70.98;101219.68;107795;1291;22886;-75
2021/11/23 07:41:37;;;;;;;16.40;9.70;;;;;;;2.40;70.87;101215.98;107960;1291;22001;-75
2021/11/23 07:44:10;;;;;;;13.20;8.90;;;;;;;2.48;70.76;101219.48;107938;1291;22109;-76
2021/11/23 07:46:42;;;;;;;13.20;8.70;;;;;;;2.54;70.69;101226.23;107969;1286;23617;-76
2021/11/23 07:49:21;;;;;;;18.70;9.50;;;;;;;2.60;70.61;101223.77;108137;1287;23110;-76
2021/11/23 07:51:53;;;;;;;16.60;10.00;;;;;;;2.67;70.48;101221.80;108299;1278;22007;-74
2021/11/23 07:54:33;;;;;;;15.00;9.00;;;;;;;2.72;70.34;101221.80;108390;1284;23609;-74
2021/11/23 07:57:04;;;;;;;12.20;9.50;;;;;;;2.76;70.07;101218.23;108382;1283;22473;-75
2021/11/23 07:59:33;;;;;;;12.60;8.30;;;;;;;2.81;70.01;101219.13;108376;1283;22026;-74
2021/11/23 08:02:03;;;;;;;12.20;9.30;;;;;;;2.87;69.98;101225.55;108390;1283;23691;-75
2021/11/23 08:04:34;;;;;;;14.40;9.00;;;;;;;2.95;69.85;101222.11;108333;1283;22121;-75
2021/11/23 08:07:06;;;;;;;16.30;11.40;;;;;;;2.98;69.63;101222.42;108006;1287;22005;-75
2021/11/23 08:09:36;;;;;;;18.60;10.70;;;;;;;3.02;69.63;101222.83;107811;1293;22061;-75
2021/11/23 08:12:07;;;;;;;18.00;11.60;;;;;;;3.07;69.54;101224.64;107483;1297;23713;-76
2021/11/23 08:14:37;;;;;;;17.70;10.20;;;;;;;3.11;69.49;101230.63;107243;1298;22015;-75
2021/11/23 08:17:08;;;;;;;16.80;9.90;;;;;;;3.16;69.60;101231.54;107229;1295;23917;-75
2021/11/23 08:19:38;;;;;;;15.60;9.60;;;;;;;3.19;69.51;101230.96;107716;1291;22006;-75
2021/11/23 08:22:07;;;;;;;14.70;9.50;;;;;;;3.22;69.23;101237.98;107973;1289;23152;-74
2021/11/23 08:24:37;;;;;;;14.60;9.30;;;;;;;3.20;69.20;101241.73;107920;1290;22145;-75
2021/11/23 08:27:08;;;;;;;12.80;8.40;;;;;;;3.15;69.08;101244.47;107493;1292;22651;-75
2021/11/23 08:29:37;;;;;;;12.80;8.60;;;;;;;3.08;69.16;101246.70;107517;1294;23177;-74
2021/11/23 08:32:07;;;;;;;13.50;8.60;;;;;;;3.04;69.28;101244.85;107612;1291;21971;-74
2021/11/23 08:34:37;;;;;;;21.70;13.70;;;;;;;2.99;69.52;101236.10;107813;1291;23903;-76
2021/11/23 08:37:07;;;;;;;19.60;13.20;;;;;;;2.96;69.65;101236.48;108015;1286;22091;-76
2021/11/23 08:39:36;;;;;;;26.60;13.40;;;;;;;2.91;69.94;101237.11;108267;1286;24417;-76
2021/11/23 08:42:05;;;;;;;17.40;12.10;;;;;;;2.87;70.21;101238.25;107768;1290;23106;-76
2021/11/23 08:44:35;;;;;;;17.10;11.10;;;;;;;2.85;70.39;101241.70;107993;1288;23613;-76
2021/11/23 08:47:05;;;;;;;18.00;10.10;;;;;;;2.82;70.66;101246.41;107984;1288;22011;-75
2021/11/23 08:49:34;;;;;;;15.40;11.30;;;;;;;2.80;70.78;101243.92;108240;1288;21986;-77
2021/11/23 08:52:03;;;;;;;17.10;11.20;;;;;;;2.78;70.96;101245.27;108001;1283;22026;-75
2021/11/23 08:54:33;;;;;;;14.10;9.20;;;;;;;2.77;71.17;101246.52;108045;1288;22009;-75
2021/11/23 08:57:07;;;;;;;16.00;10.50;;;;;;;2.73;71.29;101250.42;108270;1288;23807;-76
2021/11/23 08:59:42;;;;;;;16.00;10.50;;;;;;;2.73;71.64;101252.90;108257;1283;23739;-77
2021/11/23 09:02:23;;;;;;;19.80;13.20;;;;;;;2.73;71.74;101255.11;108408;1281;21987;-77
2021/11/23 09:04:58;;;;;;;19.40;11.80;;;;;;;2.76;72.20;101248.30;108552;1277;23071;-77
2021/11/23 09:07:34;;;;;;;13.20;10.00;;;;;;;2.79;72.27;101248.64;108408;1282;22037;-76
2021/11/23 09:10:11;;;;;;;15.10;10.80;;;;;;;2.81;72.39;101253.73;108394;1284;22016;-77
2021/11/23 09:12:41;;;;;;;12.90;10.30;;;;;;;2.81;72.39;101254.45;108496;1282;22020;-77
2021/11/23 09:15:13;;;;;;;13.50;9.90;;;;;;;2.82;72.60;101251.95;108147;1288;22985;-76
2021/11/23 09:17:43;;;;;;;11.80;9.80;;;;;;;2.87;72.93;101249.77;107449;1294;22995;-76
2021/11/23 09:33:15;;;;;;;18.20;12.30;;;;;;;2.85;73.50;101262.76;107528;1293;22013;-76
2021/11/23 09:35:44;;;;;;;16.80;13.30;;;;;;;2.89;73.66;101258.00;107802;1289;22055;-76
2021/11/23 09:38:13;;;;;;;18.80;15.60;;;;;;;2.96;73.79;101253.54;107973;1287;22022;-75
2021/11/23 09:40:43;;;;;;;20.80;15.10;;;;;;;3.02;73.75;101247.41;107917;1289;22168;-75
2021/11/23 09:43:12;;;;;;;19.40;16.00;;;;;;;3.08;73.88;101247.55;107987;1289;22922;-75
2021/11/23 09:45:41;;;;;;;16.10;14.30;;;;;;;3.12;73.89;101241.02;107652;1284;23048;-74
2021/11/23 09:48:11;;;;;;;18.90;15.30;;;;;;;3.16;73.97;101239.19;108167;1286;21985;-75
2021/11/23 09:50:42;;;;;;;17.50;14.70;;;;;;;3.19;74.00;101241.60;108192;1281;24304;-77
2021/11/23 09:53:22;;;;;;;20.30;16.40;;;;;;;3.23;74.14;101246.07;108468;1281;21986;-77
2021/11/23 09:55:53;;;;;;;18.20;15.60;;;;;;;3.27;74.13;101250.16;108547;1281;22047;-77
2021/11/23 09:58:23;;;;;;;22.60;15.60;;;;;;;3.32;74.27;101253.33;108685;1280;21991;-77
2021/11/23 10:01:06;;;;;;;20.40;18.00;;;;;;;3.36;74.25;101251.88;108644;1278;23045;-77
2021/11/23 10:03:36;;;;;;;23.60;18.80;;;;;;;3.39;74.40;101257.42;108585;1280;23631;-77
2021/11/23 10:06:18;;;;;;;18.00;14.30;;;;;;;3.42;74.55;101251.48;108834;1274;23745;-78
2021/11/23 10:08:50;;;;;;;21.90;15.70;;;;;;;3.42;74.45;101248.81;108676;1277;22386;-77
2021/11/23 10:11:30;;;;;;;19.40;16.10;;;;;;;3.48;74.77;101243.89;108881;1275;22017;-77
2021/11/23 10:14:05;;;;;;;20.00;16.90;;;;;;;3.53;74.78;101240.42;108878;1275;24387;-77
2021/11/23 10:16:52;;;;;;;17.90;16.10;;;;;;;3.59;74.94;101252.45;108887;1276;21995;-76
2021/11/23 10:19:37;;;;;;;21.60;18.50;;;;;;;3.61;74.89;101255.25;108888;1276;23707;-77
2021/11/23 10:22:28;;;;;;;22.50;19.20;;;;;;;3.63;74.98;101249.73;108732;1277;22005;-74
2021/11/23 10:25:03;;;;;;;24.50;19.00;;;;;;;3.67;75.03;101246.35;108556;1282;21986;-74
2021/11/23 10:27:41;;;;;;;23.20;19.80;;;;;;;3.70;75.01;101246.50;108496;1280;23119;-75
2021/11/23 10:30:11;;;;;;;23.10;20.80;;;;;;;3.71;75.03;101249.87;108650;1281;23596;-75
2021/11/23 10:32:48;;;;;;;23.70;20.90;;;;;;;3.75;75.18;101256.25;108259;1286;21999;-74
2021/11/23 10:35:24;;;;;;;24.50;21.40;;;;;;;3.77;75.24;101252.06;108216;1285;21981;-74
2021/11/23 10:37:54;;;;;;;25.80;20.10;;;;;;;3.80;75.29;101253.86;107996;1288;22160;-74
2021/11/23 10:40:29;;;;;;;24.40;21.20;;;;;;;3.82;75.40;101253.38;108090;1288;22639;-74
2021/11/23 10:43:04;;;;;;;24.00;20.70;;;;;;;3.84;75.46;101249.91;108218;1285;23645;-74
2021/11/23 10:45:40;;;;;;;24.50;21.80;;;;;;;3.86;75.45;101249.25;108393;1284;22503;-74
2021/11/23 10:48:14;;;;;;;26.60;22.70;;;;;;;3.87;75.48;101251.63;108220;1285;22033;-75
2021/11/23 10:51:09;;;;;;;29.00;23.70;;;;;;;3.88;75.54;101247.71;108214;1286;22125;-74
2021/11/23 10:53:45;;;;;;;27.20;24.20;;;;;;;3.90;75.64;101256.97;107993;1287;22044;-74
2021/11/23 10:56:18;;;;;;;25.50;22.50;;;;;;;3.91;75.46;101252.25;107973;1286;23697;-75
2021/11/23 10:58:49;;;;;;;26.50;23.80;;;;;;;3.91;75.55;101252.25;108409;1286;22125;-75
2021/11/23 11:01:19;;;;;;;26.20;23.40;;;;;;;3.95;75.79;101249.20;108166;1286;22969;-74
2021/11/23 11:03:49;;;;;;;29.00;23.20;;;;;;;3.97;75.68;101247.63;108224;1284;22028;-75
2021/11/23 11:06:19;;;;;;;27.80;23.70;;;;;;;3.96;75.61;101246.61;108227;1286;21998;-75
2021/11/23 11:08:52;;;;;;;28.40;23.50;;;;;;;3.95;75.68;101247.98;108401;1282;22352;-74
2021/11/23 11:11:22;;;;;;;26.60;23.50;;;;;;;3.95;75.80;101253.84;108574;1281;21984;-74
2021/11/23 11:13:53;;;;;;;27.10;24.00;;;;;;;3.99;76.01;101256.23;108423;1280;22044;-74
2021/11/23 11:16:23;;;;;;;26.80;23.70;;;;;;;4.03;76.04;101259.46;108465;1280;23840;-74
2021/11/23 11:19:05;;;;;;;28.50;23.60;;;;;;;4.06;76.01;101259.25;108665;1276;22018;-74
2021/11/23 11:22:04;;;;;;;28.70;25.70;;;;;;;4.07;75.93;101256.77;108985;1275;22700;-75
2021/11/23 11:24:48;;;;;;;28.10;24.40;;;;;;;4.07;76.13;101253.23;109179;1274;23049;-75
2021/11/23 11:27:33;;;;;;;27.20;24.20;;;;;;;4.10;76.15;101253.41;108930;1274;21994;-75
2021/11/23 11:30:37;;;;;;;31.80;28.60;;;;;;;4.12;76.22;101254.48;108948;1276;22003;-75
2021/11/23 11:33:06;;;;;;;;;;;;;;;4.14;76.21;101256.59;108832;1278;22814;-75
2021/11/23 11:35:52;;;;;;;36.30;29.80;;;;;;;4.07;76.19;101257.77;109021;1276;23633;-75
2021/11/23 11:38:28;;;;;;;31.40;27.10;;;;;;;4.09;76.36;101258.49;108954;1275;22009;-75
2021/11/23 11:41:02;;;;;;;37.10;30.20;;;;;;;4.13;76.31;101256.68;109035;1275;21978;-75
2021/11/23 11:43:43;;;;;;;29.70;26.70;;;;;;;4.17;76.35;101259.89;108590;1281;23603;-75
2021/11/23 11:46:36;;;;;;;31.80;28.40;;;;;;;4.20;76.37;101258.08;108456;1281;22071;-75
2021/11/23 11:49:05;;;;;;;41.10;32.70;;;;;;;4.22;76.28;101263.90;108396;1282;22882;-74
2021/11/23 11:51:41;;;;;;;29.40;26.30;;;;;;;4.24;76.33;101265.47;108529;1280;21993;-74